Date,TemperatureHighF,TemperatureAvgF,TemperatureLowF,DewpointHighF,DewpointAvgF,DewpointLowF,HumidityHigh,HumidityAvg,HumidityLow,PressureMaxIn,PressureMinIn,WindSpeedMaxMPH,WindSpeedAvgMPH,GustSpeedMaxMPH,PrecipitationSumIn
2013-1-3,17.0,11.6,3.0,-17.0,-26.7,-34.0,31,17,9,0.00,40.00,39,29,46,0.00
2013-1-4,24.0,20.6,18.0,3.0,-8.4,-26.0,46,28,11,0.00,40.00,17,8,35,0.00
2013-1-5,27.0,22.6,17.0,-6.0,-17.1,-27.0,34,16,8,0.00,40.00,15,7,21,0.00
2013-1-6,26.0,19.8,16.0,-12.0,-15.1,-25.0,27,20,9,0.00,40.00,30,23,43,0.00
2013-1-7,28.0,20.8,16.0,-1.0,-16.9,-36.0,29,18,6,0.00,40.00,19,12,24,0.00
2013-1-8,26.0,20.7,16.0,16.0,7.9,-6.0,97,59,33,0.00,40.00,20,12,28,0.00
2013-1-9,35.0,27.0,24.0,3.0,-1.8,-18.0,35,28,9,0.00,40.00,26,19,38,0.00
2013-1-10,23.0,17.6,11.0,13.0,4.1,-8.0,95,62,26,0.00,40.00,42,35,69,0.00
2013-1-11,10.0,-3.8,-11.0,9.0,-7.0,-15.0,93,84,81,0.00,40.00,49,17,66,0.00
2013-1-12,-5.0,-10.6,-14.0,-10.0,-14.8,-18.0,82,80,79,0.00,40.00,9,5,11,0.00
2013-1-13,-10.0,-12.2,-13.0,-15.0,-16.5,-18.0,81,80,77,0.00,40.00,16,10,25,0.00
2013-1-28,8.0,1.1,-2.0,7.0,-1.0,-4.0,94,90,88,0.00,40.00,8,4,12,0.00
2013-1-29,-1.0,-3.5,-7.0,-3.0,-6.3,-11.0,89,87,84,0.00,40.00,37,15,48,0.00
2013-1-30,10.0,3.5,-5.0,9.0,1.6,-8.0,95,91,87,0.00,40.00,31,23,42,0.00
2013-1-31,16.0,11.9,8.0,15.0,10.1,7.0,96,92,87,0.00,40.00,22,14,27,0.00
2013-2-1,17.0,14.1,11.0,11.0,4.0,-16.0,94,68,21,0.00,40.00,24,15,37,0.00
2013-2-2,27.0,23.7,18.0,-6.0,-24.5,-38.0,27,11,4,0.00,40.00,25,14,32,0.00
2013-2-3,24.0,20.1,15.0,21.0,-0.3,-27.0,97,53,9,0.00,40.00,20,12,27,0.00
2013-2-4,23.0,19.4,16.0,7.0,-6.1,-14.0,53,32,20,0.00,40.00,26,14,31,0.00
2013-2-5,33.0,27.1,22.0,15.0,8.5,1.0,61,45,34,0.00,40.00,21,8,28,0.00
2013-2-6,23.0,18.1,12.0,15.0,10.8,4.0,96,73,42,0.00,40.00,26,15,39,0.00
2013-2-7,25.0,18.7,9.0,8.0,-18.7,-42.0,92,24,3,0.00,40.00,39,15,51,0.00
2013-2-8,16.0,14.2,9.0,14.0,11.2,7.0,95,88,73,0.00,40.00,40,32,61,0.00
2013-2-9,10.0,5.4,3.0,6.0,2.7,0.0,92,89,84,0.00,40.00,28,13,43,0.00
2013-2-10,10.0,3.0,0.0,6.0,-0.0,-3.0,89,87,82,0.00,40.00,15,8,20,0.00
2013-2-11,14.0,2.6,-4.0,10.0,-0.4,-7.0,89,87,84,0.00,40.00,16,8,22,0.00
2013-2-12,14.0,4.7,-3.0,6.0,-3.6,-8.0,87,69,42,0.00,40.00,16,9,24,0.00
2013-2-13,19.0,14.9,10.0,11.0,3.7,-4.0,83,61,40,0.00,40.00,13,9,25,0.00
2013-2-14,16.0,10.1,7.0,10.0,3.6,-6.0,94,76,39,0.00,40.00,27,16,39,0.00
2013-2-15,15.0,10.6,6.0,7.0,-4.3,-9.0,92,52,36,0.00,40.00,34,19,44,0.00
2013-2-16,23.0,19.0,15.0,-3.0,-9.0,-18.0,41,28,16,0.00,40.00,28,18,33,0.00
2013-2-17,22.0,18.2,7.0,11.0,-1.2,-13.0,95,47,19,0.00,40.00,24,19,36,0.00
2013-2-18,17.0,7.3,-2.0,0.0,-26.7,-51.0,86,28,3,0.00,40.00,34,17,46,0.00
2013-2-19,15.0,14.3,13.0,4.0,-3.2,-30.0,68,48,11,0.00,40.00,31,25,50,0.00
2013-2-20,14.0,10.2,8.0,9.0,5.4,-1.0,91,81,52,0.00,40.00,30,13,46,0.00
2013-2-21,17.0,9.5,6.0,15.0,7.5,4.0,92,90,88,0.00,40.00,11,8,17,0.00
2013-2-22,5.0,2.3,-1.0,3.0,-0.6,-4.0,90,86,80,0.00,40.00,26,10,33,0.00
2013-2-23,15.0,6.8,-4.0,14.0,2.5,-19.0,94,83,30,0.00,40.00,23,15,43,0.00
2013-2-24,7.0,-1.3,-8.0,-1.0,-6.1,-11.0,85,79,60,0.00,40.00,28,17,44,0.00
2013-2-25,19.0,11.2,5.0,2.0,-6.8,-21.0,62,44,23,0.00,40.00,27,13,52,0.00
2013-2-26,8.0,0.7,-3.0,2.0,-3.1,-7.0,88,83,64,0.00,40.00,29,17,39,0.00
2013-2-27,10.0,4.0,-2.0,5.0,-3.0,-16.0,87,73,37,0.00,40.00,9,4,23,0.00
2013-2-28,11.0,8.7,5.0,8.0,-3.5,-21.0,95,60,23,0.00,40.00,29,18,38,0.00
2013-3-1,26.0,17.9,10.0,17.0,11.5,6.0,94,77,50,0.00,40.00,23,17,32,0.00
2013-3-2,34.0,28.1,23.0,10.0,4.9,-5.0,57,38,19,0.00,40.00,24,14,37,0.00
2013-3-3,27.0,23.0,21.0,21.0,15.2,10.0,97,73,50,0.00,40.00,29,21,39,0.00
2013-3-4,21.0,17.2,7.0,20.0,13.0,-39.0,97,88,6,0.00,40.00,20,13,28,0.00
2013-3-5,32.0,23.4,16.0,10.0,-19.6,-58.0,59,21,1,0.00,40.00,39,22,53,0.00
2013-3-6,27.0,23.7,21.0,12.0,7.8,-1.0,65,50,31,0.00,40.00,38,30,50,0.00
2013-3-7,27.0,24.5,21.0,11.0,3.2,-4.0,54,39,26,0.00,40.00,34,27,53,0.00
2013-3-8,24.0,18.8,16.0,17.0,13.6,3.0,96,82,42,0.00,40.00,32,23,43,0.00
2013-3-9,15.0,14.3,13.0,14.0,13.3,12.0,96,95,94,0.00,40.00,28,22,36,0.00
2013-11-3,28.0,21.6,8.0,21.0,12.5,5.0,94,69,45,0.00,40.00,32,22,52,0.00
2013-11-4,19.0,16.3,9.0,16.0,8.3,-9.0,93,73,33,0.00,40.00,28,17,38,0.00
2013-11-5,14.0,9.0,2.0,9.0,-2.5,-34.0,90,69,9,0.00,40.00,14,8,21,0.00
2013-11-6,20.0,16.8,13.0,14.0,5.5,-31.0,85,64,10,0.00,40.00,22,15,24,0.00
2013-11-7,34.0,29.9,21.0,13.0,7.8,-1.0,57,40,24,0.00,40.00,25,13,37,0.00
2013-11-8,32.0,28.5,25.0,14.0,8.4,3.0,49,42,31,0.00,40.00,28,16,44,0.00
2013-11-9,36.0,31.0,28.0,11.0,5.7,-99.9,48,35,22,0.00,40.00,8,5,12,0.00
2013-11-10,34.0,31.5,29.0,12.0,9.0,4.0,41,38,33,0.00,40.00,13,10,19,0.00
2013-11-11,36.0,31.8,29.0,12.0,8.8,6.0,43,37,30,0.00,40.00,18,13,24,0.00
2013-11-12,38.0,34.4,31.0,16.0,8.6,1.0,41,33,25,0.00,40.00,13,6,20,0.00
2013-11-13,32.0,29.2,25.0,18.0,10.8,-2.0,73,46,24,0.00,40.00,16,8,23,0.00
2013-11-14,31.0,24.7,20.0,20.0,12.2,-21.0,95,62,10,0.00,40.00,28,14,44,0.00
2013-11-15,23.0,20.4,16.0,20.0,14.2,11.0,94,77,62,0.00,40.00,29,19,52,0.00
2013-11-16,18.0,16.5,15.0,17.0,13.6,-99.9,94,92,92,0.00,40.00,33,21,52,0.00
2013-11-17,23.0,19.0,16.0,22.0,17.8,15.0,96,94,93,0.00,40.00,17,9,28,0.00
2013-11-18,32.0,23.5,16.0,22.0,12.3,-9.0,93,66,18,0.00,40.00,14,6,19,0.00
2013-11-19,25.0,23.6,23.0,24.0,18.0,8.0,97,79,50,0.00,40.00,29,22,42,0.00
2013-11-20,24.0,21.7,20.0,22.0,20.6,19.0,96,95,94,0.00,40.00,10,6,14,0.00
2013-11-21,23.0,20.8,19.0,22.0,19.9,18.0,96,96,94,0.00,40.00,12,9,26,0.00
2013-11-22,23.0,21.4,20.0,22.0,20.6,19.0,97,96,95,0.00,40.00,30,18,42,0.00
2013-11-23,22.0,21.3,21.0,21.0,20.3,20.0,96,96,96,0.00,40.00,30,25,36,0.00
2013-11-25,22.0,22.0,22.0,12.0,12.0,12.0,65,65,65,0.00,40.00,12,12,25,0.00
2013-12-8,-1.0,-9.4,-14.0,-5.0,-14.0,-19.0,82,79,77,0.00,40.00,9,7,13,0.00
2013-12-9,3.0,-8.4,-16.0,-5.0,-13.6,-21.0,83,77,58,0.00,40.00,26,13,35,0.00
2013-12-10,12.0,10.7,7.0,2.0,0.4,-2.0,68,61,57,0.00,40.00,22,14,25,0.00
2013-12-11,23.0,14.8,12.0,-1.0,-7.3,-10.0,56,37,21,0.00,40.00,14,9,18,0.00
2013-12-12,27.0,27.0,27.0,13.0,13.0,13.0,53,53,53,0.00,40.00,14,14,19,0.00
2013-12-13,17.0,12.7,10.0,4.0,1.1,-1.0,70,58,46,0.00,40.00,22,16,29,0.00
2013-12-14,21.0,14.2,10.0,4.0,-4.7,-99.9,69,46,34,0.00,40.00,30,16,48,0.00
2013-12-15,28.0,24.9,16.0,8.0,2.1,-4.0,65,39,24,0.00,40.00,30,17,46,0.00
2013-12-16,26.0,24.3,22.0,14.0,11.1,4.0,62,56,45,0.00,40.00,33,22,37,0.00
2013-12-17,35.0,34.0,33.0,3.0,1.0,-1.0,26,24,23,0.00,40.00,10,8,14,0.00
2013-12-18,29.0,27.6,26.0,20.0,7.2,-6.0,77,44,21,0.00,40.00,28,18,42,0.00
2013-12-19,25.0,19.1,15.0,21.0,12.2,7.0,93,76,51,0.00,40.00,41,26,62,0.00
2013-12-20,16.0,12.6,6.0,14.0,10.4,2.0,92,90,76,0.00,40.00,17,8,29,0.00
2013-12-21,12.0,8.7,4.0,10.0,3.7,-99.9,90,84,45,0.00,40.00,24,14,43,0.00
2013-12-22,9.0,6.2,3.0,6.0,1.8,-8.0,89,82,49,0.00,40.00,22,16,34,0.00
2013-12-23,19.0,13.0,9.0,16.0,10.2,6.0,96,88,68,0.00,40.00,18,11,25,0.00
2013-12-24,19.0,15.8,10.0,18.0,12.8,2.0,95,88,70,0.00,40.00,32,18,40,0.00
2013-12-25,23.0,21.3,16.0,4.0,-1.9,-21.0,42,36,17,0.00,40.00,20,17,38,0.00
2013-12-26,29.0,25.2,22.0,11.0,0.7,-14.0,58,36,17,0.00,40.00,14,7,22,0.00
2013-12-27,30.0,28.1,24.0,16.0,13.4,10.0,56,53,49,0.00,40.00,23,14,37,0.00
2013-12-28,24.0,18.4,14.0,9.0,0.7,-99.9,68,49,32,0.00,40.00,21,14,28,0.00
2013-12-29,18.0,12.0,8.0,6.0,-2.0,-13.0,82,56,28,0.00,40.00,19,12,42,0.00
2013-12-30,21.0,17.2,12.0,12.0,4.0,-2.0,73,56,35,0.00,40.00,28,16,37,0.00
2013-12-31,22.0,19.8,18.0,17.0,11.7,6.0,93,71,54,0.00,40.00,18,14,24,0.00
2014-1-1,18.0,16.2,13.0,16.0,6.1,-11.0,94,71,27,0.00,40.00,35,24,44,0.00
2014-1-2,25.0,24.1,19.0,-12.0,-17.0,-29.0,18,15,9,0.00,40.00,15,8,20,0.00